Rusape, Zimbabwe
Current Conditions -  °F | °C
As of 11:00 AM on Tuesday 21 Oct 2014 (Local Time) from FVHA Reporting Station
Clear Clear  
Wind Chill: 79°   Ceiling: Unl
Heat Index: 79°   Visibility: 6mi
Dew Point: 43°   Wind: 8mph
Humidity: 28%   Direction: 150°SSE
Pressure: 30.27"   Gusts: NA
Location:  18.53°S, 32.12°E
Report Text: FVHA 210900Z 15007KT 090V210 CAVOK 26/06 Q1025 NOSIG
Loading
Personal Weather Stations






























Interactive Weather Map
Tropical Storm Tracking
New forecast layout! Learn more

10-Day Weather Forecast

Advertisements
Track Severe Weather on mobile